createdAt,value
2019-03-28T00:02:59.725Z,102861.23
2019-03-28T00:08:05.574Z,102879.50
2019-03-28T00:13:11.350Z,102885.84
2019-03-28T00:18:17.210Z,102889.89
2019-03-28T00:23:27.589Z,102895.36
2019-03-28T00:28:34.590Z,102899.83
2019-03-28T00:33:40.471Z,102916.17
2019-03-28T00:38:46.338Z,102927.16
2019-03-28T00:43:52.299Z,102957.72
2019-03-28T00:48:58.351Z,102960.25
2019-03-28T00:54:04.313Z,102983.58
2019-03-28T00:59:10.126Z,103007.13
2019-03-28T01:04:16.181Z,103032.11
2019-03-28T01:09:22.068Z,103058.09
2019-03-28T01:14:27.948Z,103062.97
2019-03-28T01:19:35.237Z,103072.52
2019-03-28T01:24:41.329Z,103083.77
2019-03-28T01:29:48.323Z,103089.85
2019-03-28T01:34:54.191Z,103106.02
2019-03-28T01:40:00.408Z,103118.76
2019-03-28T01:45:08.257Z,103126.64
2019-03-28T01:50:14.946Z,103130.59
2019-03-28T01:55:21.390Z,103136.52
2019-03-28T02:00:27.370Z,103157.43
2019-03-28T02:05:33.404Z,103165.77
2019-03-28T02:10:39.282Z,103184.68
2019-03-28T02:15:45.191Z,103177.27
2019-03-28T02:20:51.063Z,103178.98
2019-03-28T02:25:56.831Z,103161.52
2019-03-28T02:31:02.674Z,103161.66
2019-03-28T02:36:08.472Z,103151.41
2019-03-28T02:41:14.403Z,103141.71
2019-03-28T02:46:20.164Z,103126.23
2019-03-28T02:51:26.054Z,103097.03
2019-03-28T02:56:32.121Z,103068.18
2019-03-28T03:01:38.037Z,103047.85
2019-03-28T03:06:43.916Z,103031.67
2019-03-28T03:11:49.777Z,103008.02
2019-03-28T03:16:55.707Z,102997.08
2019-03-28T03:22:02.824Z,102972.02
2019-03-28T03:27:09.075Z,102963.30
2019-03-28T03:32:15.942Z,102948.59
2019-03-28T03:37:22.185Z,102956.86
2019-03-28T03:42:28.077Z,102952.45
2019-03-28T03:47:33.940Z,102951.29
2019-03-28T03:52:39.852Z,102950.44
2019-03-28T03:57:45.880Z,102948.44
2019-03-28T04:02:51.740Z,102950.48
2019-03-28T04:07:57.643Z,102951.14
2019-03-28T04:13:03.519Z,102944.70
2019-03-28T04:18:09.492Z,102952.54
2019-03-28T04:23:15.553Z,102949.55
2019-03-28T04:28:31.813Z,102934.47
2019-03-28T04:33:29.023Z,102933.33
2019-03-28T04:38:34.909Z,102923.97
2019-03-28T04:43:41.995Z,102910.41
2019-03-28T04:48:50.621Z,102895.61
2019-03-28T04:53:56.467Z,102894.45
2019-03-28T04:59:02.479Z,102878.12
2019-03-28T05:04:08.446Z,102865.34
2019-03-28T05:09:14.313Z,102846.11
2019-03-28T05:14:20.191Z,102830.28
2019-03-28T05:19:26.058Z,102814.30
2019-03-28T05:24:32.450Z,102799.73
2019-03-28T05:29:38.819Z,102794.53
2019-03-28T05:34:44.695Z,102793.02
2019-03-28T05:39:50.464Z,102774.09
2019-03-28T05:44:56.339Z,102741.13
2019-03-28T05:50:02.313Z,102727.98
2019-03-28T05:55:08.360Z,102706.69
2019-03-28T06:00:14.628Z,102691.36
2019-03-28T06:05:20.525Z,102680.15
2019-03-28T06:10:26.289Z,102695.19
2019-03-28T06:15:32.261Z,102693.74
2019-03-28T06:20:38.139Z,102684.77
2019-03-28T06:25:43.905Z,102663.45
2019-03-28T06:30:49.884Z,102646.20
2019-03-28T06:35:55.894Z,102604.14
2019-03-28T06:41:01.818Z,102548.73
2019-03-28T06:46:07.795Z,102471.14
2019-03-28T06:51:16.205Z,102345.75
2019-03-28T06:56:25.249Z,102260.85
2019-03-28T07:01:29.833Z,102201.27
2019-03-28T07:06:35.801Z,102194.47
2019-03-28T07:11:41.785Z,102182.11
2019-03-28T07:16:47.729Z,102140.94
2019-03-28T07:21:53.605Z,102126.64
2019-03-28T07:26:59.576Z,102074.69
2019-03-28T07:32:05.446Z,102052.20
2019-03-28T07:37:11.313Z,102037.34
2019-03-28T07:42:17.187Z,102024.86
2019-03-28T07:47:23.068Z,102012.34
2019-03-28T07:52:28.875Z,101971.27
2019-03-28T07:57:35.003Z,101924.52
2019-03-28T08:02:40.982Z,101907.44
2019-03-28T08:07:47.206Z,101910.41
2019-03-28T08:12:53.229Z,101873.45
2019-03-28T08:17:59.077Z,101838.90
2019-03-28T08:23:04.977Z,101796.45
2019-03-28T08:28:10.952Z,101796.81
2019-03-28T08:33:17.844Z,101826.30
2019-03-28T08:38:23.722Z,101834.28
2019-03-28T08:43:29.702Z,101855.34
2019-03-28T08:48:35.889Z,101846.32
2019-03-28T08:53:41.747Z,101783.23
2019-03-28T08:58:47.625Z,101755.02
2019-03-28T09:03:53.729Z,101723.27
2019-03-28T09:08:59.561Z,101667.31
2019-03-28T09:14:05.707Z,101610.83
2019-03-28T09:19:11.641Z,101543.45
2019-03-28T09:24:17.670Z,101515.48
2019-03-28T09:29:23.719Z,101515.45
2019-03-28T09:34:29.823Z,101506.08
2019-03-28T09:39:35.716Z,101517.52
2019-03-28T09:44:41.847Z,101498.13
2019-03-28T09:49:47.659Z,101520.34
2019-03-28T09:54:53.541Z,101521.05
2019-03-28T09:59:59.506Z,101487.41
2019-03-28T10:05:06.991Z,101471.50
2019-03-28T10:10:14.238Z,101422.52
2019-03-28T10:15:20.220Z,101461.50
2019-03-28T10:20:26.096Z,101493.73
2019-03-28T10:25:32.070Z,101568.48
2019-03-28T10:30:40.334Z,101563.94
2019-03-28T10:35:46.155Z,101587.85
2019-03-28T10:40:52.103Z,101606.52
2019-03-28T10:45:58.515Z,101657.73
2019-03-28T10:51:04.360Z,101659.50
2019-03-28T10:56:21.017Z,101665.86
2019-03-28T11:01:32.464Z,101651.27
2019-03-28T11:06:25.621Z,101657.45
2019-03-28T11:11:31.428Z,101702.09
2019-03-28T11:16:37.298Z,101747.22
2019-03-28T11:21:43.276Z,101765.31
2019-03-28T11:26:49.154Z,101780.74
2019-03-28T11:31:55.013Z,101758.05
2019-03-28T11:37:00.994Z,101751.11
2019-03-28T11:42:07.474Z,101801.33
2019-03-28T11:47:13.434Z,101816.08
2019-03-28T11:52:19.208Z,101849.09
2019-03-28T11:57:25.078Z,101913.00
2019-03-28T12:02:30.886Z,101922.03
2019-03-28T12:07:37.151Z,101908.16
2019-03-28T12:12:43.012Z,101892.02
2019-03-28T12:17:48.990Z,101875.37
2019-03-28T12:22:56.180Z,101828.13
2019-03-28T12:28:02.064Z,101787.05
2019-03-28T12:33:09.051Z,101813.14
2019-03-28T12:38:14.925Z,101833.02
2019-03-28T12:43:20.907Z,101855.01
2019-03-28T12:48:26.871Z,101898.63
2019-03-28T12:53:32.748Z,101938.97
2019-03-28T12:58:38.523Z,101958.98
2019-03-28T13:03:46.187Z,101959.42
2019-03-28T13:08:52.304Z,101997.98
2019-03-28T13:13:58.472Z,102021.10
2019-03-28T13:19:04.258Z,102007.81
2019-03-28T13:24:10.258Z,102006.96
2019-03-28T13:29:16.113Z,101998.27
2019-03-28T13:34:22.103Z,101948.98
2019-03-28T13:39:27.947Z,101915.40
2019-03-28T13:44:33.817Z,101904.48
2019-03-28T13:49:39.682Z,101920.11
2019-03-28T13:54:45.655Z,101924.34
2019-03-28T13:59:51.624Z,101927.39
2019-03-28T14:04:57.504Z,101928.08
2019-03-28T14:10:22.514Z,101919.75
2019-03-28T14:15:28.492Z,101943.90
2019-03-28T14:20:35.503Z,101908.70
2019-03-28T14:25:41.359Z,101922.13
2019-03-28T14:30:47.347Z,101938.85
2019-03-28T14:35:53.316Z,101991.89
2019-03-28T14:40:59.296Z,102066.41
2019-03-28T14:46:05.292Z,102089.33
2019-03-28T14:51:11.193Z,102101.78
2019-03-28T14:56:17.869Z,102131.73
2019-03-28T15:01:26.550Z,102132.41
2019-03-28T15:06:31.204Z,102127.27
2019-03-28T15:11:37.071Z,102112.00
2019-03-28T15:16:43.071Z,102108.84
2019-03-28T15:21:49.126Z,102119.14
2019-03-28T15:26:55.885Z,102133.05
2019-03-28T15:32:01.676Z,102130.78
2019-03-28T15:37:07.676Z,102116.95
2019-03-28T15:42:13.707Z,102127.83
2019-03-28T15:47:19.605Z,102146.45
2019-03-28T15:52:27.411Z,102148.13
2019-03-28T15:57:33.523Z,102139.44
2019-03-28T16:02:39.371Z,102161.98
2019-03-28T16:07:45.294Z,102170.80
2019-03-28T16:12:51.417Z,102170.27
2019-03-28T16:17:57.892Z,102178.34
2019-03-28T16:23:04.055Z,102179.01
2019-03-28T16:28:09.843Z,102176.55
2019-03-28T16:33:15.816Z,102163.23
2019-03-28T16:38:21.692Z,102162.50
2019-03-28T16:43:27.570Z,102145.30
2019-03-28T16:48:33.639Z,102149.36
2019-03-28T16:53:39.471Z,102143.53
2019-03-28T16:58:45.875Z,102168.63
2019-03-28T17:03:52.384Z,102191.70
2019-03-28T17:09:00.302Z,102194.95
2019-03-28T17:14:07.841Z,102199.75
2019-03-28T17:19:13.890Z,102195.25
2019-03-28T17:24:19.864Z,102183.39
2019-03-28T17:29:25.805Z,102177.25
2019-03-28T17:34:35.185Z,102175.29
2019-03-28T17:39:39.222Z,102196.72
2019-03-28T17:44:45.153Z,102205.92
2019-03-28T17:49:51.827Z,102207.31
2019-03-28T17:54:57.912Z,102208.77
2019-03-28T18:00:05.147Z,102216.06
2019-03-28T18:05:15.354Z,102236.23
2019-03-28T18:10:19.022Z,102259.00
2019-03-28T18:15:24.928Z,102281.16
2019-03-28T18:20:30.726Z,102293.66
2019-03-28T18:25:36.561Z,102321.17
2019-03-28T18:30:42.428Z,102324.53
2019-03-28T18:35:48.202Z,102334.62
2019-03-28T18:40:54.077Z,102344.30
2019-03-28T18:46:00.095Z,102348.29
2019-03-28T18:51:06.423Z,102340.79
2019-03-28T18:56:12.319Z,102351.95
2019-03-28T19:01:18.182Z,102358.95
2019-03-28T19:06:24.138Z,102356.41
2019-03-28T19:11:30.128Z,102365.39
2019-03-28T19:16:35.989Z,102373.25
2019-03-28T19:21:42.006Z,102368.41
2019-03-28T19:26:47.940Z,102381.97
2019-03-28T19:31:53.838Z,102395.55
2019-03-28T19:37:00.089Z,102408.03
2019-03-28T19:42:06.951Z,102414.55
2019-03-28T19:47:12.761Z,102421.22
2019-03-28T19:52:18.631Z,102434.67
2019-03-28T19:57:24.399Z,102443.86
2019-03-28T20:02:30.270Z,102458.86
2019-03-28T20:07:36.238Z,102465.05
2019-03-28T20:12:42.047Z,102474.03
2019-03-28T20:17:48.161Z,102467.98
2019-03-28T20:22:54.093Z,102456.43
2019-03-28T20:28:00.040Z,102464.42
2019-03-28T20:33:05.995Z,102456.93
2019-03-28T20:38:11.969Z,102454.26
2019-03-28T20:43:17.951Z,102465.17
2019-03-28T20:48:24.037Z,102449.06
2019-03-28T20:53:29.999Z,102441.81
2019-03-28T20:58:35.787Z,102452.08
2019-03-28T21:03:42.063Z,102461.02
2019-03-28T21:08:47.907Z,102469.51
2019-03-28T21:13:53.793Z,102474.63
2019-03-28T21:18:59.702Z,102468.06
2019-03-28T21:24:05.694Z,102451.85
2019-03-28T21:29:11.705Z,102447.00
2019-03-28T21:34:17.623Z,102443.71
2019-03-28T21:39:23.666Z,102443.84
2019-03-28T21:44:29.470Z,102451.33
2019-03-28T21:49:35.245Z,102463.30
2019-03-28T21:54:41.036Z,102469.48
2019-03-28T21:59:46.940Z,102471.88
2019-03-28T22:04:52.960Z,102472.65
2019-03-28T22:09:58.889Z,102471.30
2019-03-28T22:15:08.815Z,102476.78
2019-03-28T22:20:14.708Z,102474.95
2019-03-28T22:25:20.802Z,102460.41
2019-03-28T22:30:26.750Z,102452.05
2019-03-28T22:35:32.715Z,102459.66
2019-03-28T22:40:38.620Z,102454.83
2019-03-28T22:45:44.598Z,102454.72
2019-03-28T22:50:50.488Z,102454.69
2019-03-28T22:55:56.330Z,102454.22
2019-03-28T23:01:02.569Z,102463.87
2019-03-28T23:06:09.982Z,102469.31
2019-03-28T23:11:15.790Z,102475.86
2019-03-28T23:16:21.666Z,102481.58
2019-03-28T23:21:27.525Z,102483.96
2019-03-28T23:26:33.296Z,102481.94
2019-03-28T23:31:39.374Z,102485.63
2019-03-28T23:36:45.240Z,102501.16
2019-03-28T23:41:50.923Z,102500.22
2019-03-28T23:46:56.678Z,102503.80
2019-03-28T23:52:02.558Z,102495.33
2019-03-28T23:57:08.427Z,102501.27
